sensor_id;sensor_type;location;lat;lon;timestamp;temperature;humidity
15556;DHT22;7879;48.660;9.116;2022-12-13T00:01:54;-8.40;99.90
15556;DHT22;7879;48.660;9.116;2022-12-13T00:04:22;-8.40;99.90
15556;DHT22;7879;48.660;9.116;2022-12-13T00:06:50;-8.40;99.90
15556;DHT22;7879;48.660;9.116;2022-12-13T00:09:17;-8.40;99.90
15556;DHT22;7879;48.660;9.116;2022-12-13T00:11:45;-8.30;99.90
15556;DHT22;7879;48.660;9.116;2022-12-13T00:14:12;-8.40;99.90
15556;DHT22;7879;48.660;9.116;2022-12-13T00:16:44;-8.40;99.90
15556;DHT22;7879;48.660;9.116;2022-12-13T00:19:12;-8.40;99.90
15556;DHT22;7879;48.660;9.116;2022-12-13T00:21:38;-8.50;99.90
15556;DHT22;7879;48.660;9.116;2022-12-13T00:24:06;-8.40;99.90
15556;DHT22;7879;48.660;9.116;2022-12-13T00:26:33;-8.50;99.90
15556;DHT22;7879;48.660;9.116;2022-12-13T00:29:03;-8.50;99.90
15556;DHT22;7879;48.660;9.116;2022-12-13T00:31:30;-8.60;99.90
15556;DHT22;7879;48.660;9.116;2022-12-13T00:34:18;-8.50;99.90
15556;DHT22;7879;48.660;9.116;2022-12-13T00:36:45;-8.50;99.90
15556;DHT22;7879;48.660;9.116;2022-12-13T00:39:12;-8.60;99.90
15556;DHT22;7879;48.660;9.116;2022-12-13T00:41:42;-8.70;99.90
15556;DHT22;7879;48.660;9.116;2022-12-13T00:44:12;-8.80;99.90
15556;DHT22;7879;48.660;9.116;2022-12-13T00:46:40;-8.80;99.90
15556;DHT22;7879;48.660;9.116;2022-12-13T00:49:08;-8.90;99.90
15556;DHT22;7879;48.660;9.116;2022-12-13T00:51:36;-8.80;99.90
15556;DHT22;7879;48.660;9.116;2022-12-13T00:54:03;-8.90;99.90
15556;DHT22;7879;48.660;9.116;2022-12-13T00:56:31;-9.00;99.90
15556;DHT22;7879;48.660;9.116;2022-12-13T00:58:58;-9.00;99.90
15556;DHT22;7879;48.660;9.116;2022-12-13T01:01:30;-9.00;99.90
15556;DHT22;7879;48.660;9.116;2022-12-13T01:03:59;-9.00;99.90
15556;DHT22;7879;48.660;9.116;2022-12-13T01:06:41;-9.10;99.90
15556;DHT22;7879;48.660;9.116;2022-12-13T01:09:23;-9.00;99.90
15556;DHT22;7879;48.660;9.116;2022-12-13T01:11:57;-9.00;99.90
15556;DHT22;7879;48.660;9.116;2022-12-13T01:14:24;-9.00;99.90
15556;DHT22;7879;48.660;9.116;2022-12-13T01:16:52;-8.90;99.90
15556;DHT22;7879;48.660;9.116;2022-12-13T01:19:25;-9.00;99.90
15556;DHT22;7879;48.660;9.116;2022-12-13T01:21:57;-9.00;99.90
15556;DHT22;7879;48.660;9.116;2022-12-13T01:24:25;-8.90;99.90
15556;DHT22;7879;48.660;9.116;2022-12-13T01:26:52;-9.00;99.90
15556;DHT22;7879;48.660;9.116;2022-12-13T01:29:24;-9.10;99.90
15556;DHT22;7879;48.660;9.116;2022-12-13T01:31:52;-9.10;99.90
15556;DHT22;7879;48.660;9.116;2022-12-13T01:34:20;-9.20;99.90
15556;DHT22;7879;48.660;9.116;2022-12-13T01:36:53;-9.20;99.90
15556;DHT22;7879;48.660;9.116;2022-12-13T01:39:25;-9.30;99.90
15556;DHT22;7879;48.660;9.116;2022-12-13T01:41:54;-9.30;99.90
15556;DHT22;7879;48.660;9.116;2022-12-13T01:44:57;-9.30;99.90
15556;DHT22;7879;48.660;9.116;2022-12-13T01:47:46;-9.40;99.90
15556;DHT22;7879;48.660;9.116;2022-12-13T01:50:30;-9.40;99.90
15556;DHT22;7879;48.660;9.116;2022-12-13T01:52:59;-9.40;99.90
15556;DHT22;7879;48.660;9.116;2022-12-13T01:55:29;-9.50;99.90
15556;DHT22;7879;48.660;9.116;2022-12-13T01:57:59;-9.50;99.90
15556;DHT22;7879;48.660;9.116;2022-12-13T02:00:27;-9.50;99.90
15556;DHT22;7879;48.660;9.116;2022-12-13T02:02:55;-9.40;99.90
15556;DHT22;7879;48.660;9.116;2022-12-13T02:05:33;-9.40;99.90
15556;DHT22;7879;48.660;9.116;2022-12-13T02:08:02;-9.50;99.90
15556;DHT22;7879;48.660;9.116;2022-12-13T02:10:30;-9.40;99.90
15556;DHT22;7879;48.660;9.116;2022-12-13T02:12:57;-9.50;99.90
15556;DHT22;7879;48.660;9.116;2022-12-13T02:15:27;-9.50;99.90
15556;DHT22;7879;48.660;9.116;2022-12-13T02:18:32;-9.40;99.90
15556;DHT22;7879;48.660;9.116;2022-12-13T02:35:06;-9.60;99.90
15556;DHT22;7879;48.660;9.116;2022-12-13T02:43:03;-9.60;99.90
15556;DHT22;7879;48.660;9.116;2022-12-13T02:45:38;-9.70;99.90
15556;DHT22;7879;48.660;9.116;2022-12-13T02:48:09;-9.80;99.90
15556;DHT22;7879;48.660;9.116;2022-12-13T02:50:37;-9.90;99.90
15556;DHT22;7879;48.660;9.116;2022-12-13T02:53:06;-9.80;99.90
15556;DHT22;7879;48.660;9.116;2022-12-13T02:55:37;-9.80;99.90
15556;DHT22;7879;48.660;9.116;2022-12-13T02:58:04;-9.70;99.90
15556;DHT22;7879;48.660;9.116;2022-12-13T03:03:41;-9.80;99.90
15556;DHT22;7879;48.660;9.116;2022-12-13T03:06:35;-9.90;99.90
15556;DHT22;7879;48.660;9.116;2022-12-13T03:09:22;-9.90;99.90
15556;DHT22;7879;48.660;9.116;2022-12-13T03:20:23;-9.90;99.90
15556;DHT22;7879;48.660;9.116;2022-12-13T03:22:51;-9.90;99.90
15556;DHT22;7879;48.660;9.116;2022-12-13T03:25:19;-9.90;99.90
15556;DHT22;7879;48.660;9.116;2022-12-13T03:27:58;-9.70;99.90
15556;DHT22;7879;48.660;9.116;2022-12-13T03:30:27;-9.80;99.90
15556;DHT22;7879;48.660;9.116;2022-12-13T03:32:54;-9.80;99.90
15556;DHT22;7879;48.660;9.116;2022-12-13T03:35:22;-9.90;99.90
15556;DHT22;7879;48.660;9.116;2022-12-13T03:38:00;-10.00;99.90
15556;DHT22;7879;48.660;9.116;2022-12-13T03:40:28;-10.00;99.90
15556;DHT22;7879;48.660;9.116;2022-12-13T03:42:55;-10.00;99.90
15556;DHT22;7879;48.660;9.116;2022-12-13T03:45:23;-9.90;99.90
15556;DHT22;7879;48.660;9.116;2022-12-13T03:47:49;-10.00;99.90
15556;DHT22;7879;48.660;9.116;2022-12-13T03:50:16;-10.00;99.90
15556;DHT22;7879;48.660;9.116;2022-12-13T03:53:00;-10.10;99.90
15556;DHT22;7879;48.660;9.116;2022-12-13T03:55:27;-10.10;99.90
15556;DHT22;7879;48.660;9.116;2022-12-13T03:57:55;-10.10;99.90
15556;DHT22;7879;48.660;9.116;2022-12-13T04:00:22;-10.20;99.90
15556;DHT22;7879;48.660;9.116;2022-12-13T04:02:49;-10.20;99.90
15556;DHT22;7879;48.660;9.116;2022-12-13T04:05:16;-10.20;99.90
15556;DHT22;7879;48.660;9.116;2022-12-13T04:07:44;-10.20;99.90
15556;DHT22;7879;48.660;9.116;2022-12-13T04:10:14;-10.20;99.90
15556;DHT22;7879;48.660;9.116;2022-12-13T04:12:52;-10.20;99.90
15556;DHT22;7879;48.660;9.116;2022-12-13T04:15:38;-10.30;99.90
15556;DHT22;7879;48.660;9.116;2022-12-13T04:18:05;-10.30;99.90
15556;DHT22;7879;48.660;9.116;2022-12-13T04:20:32;-10.20;99.90
15556;DHT22;7879;48.660;9.116;2022-12-13T04:22:58;-10.20;99.90
15556;DHT22;7879;48.660;9.116;2022-12-13T04:25:26;-10.10;99.90
15556;DHT22;7879;48.660;9.116;2022-12-13T04:27:52;-10.20;99.90
15556;DHT22;7879;48.660;9.116;2022-12-13T04:30:19;-10.20;99.90
15556;DHT22;7879;48.660;9.116;2022-12-13T04:32:46;-10.20;99.90
15556;DHT22;7879;48.660;9.116;2022-12-13T04:35:12;-10.20;99.90
15556;DHT22;7879;48.660;9.116;2022-12-13T04:37:40;-10.10;99.90
15556;DHT22;7879;48.660;9.116;2022-12-13T04:40:10;-10.10;99.90
15556;DHT22;7879;48.660;9.116;2022-12-13T04:42:36;-10.20;99.90
15556;DHT22;7879;48.660;9.116;2022-12-13T04:45:03;-10.20;99.90
15556;DHT22;7879;48.660;9.116;2022-12-13T04:47:30;-10.30;99.90
15556;DHT22;7879;48.660;9.116;2022-12-13T04:49:57;-10.40;99.90
15556;DHT22;7879;48.660;9.116;2022-12-13T04:52:24;-10.30;99.90
15556;DHT22;7879;48.660;9.116;2022-12-13T04:54:50;-10.40;99.90
15556;DHT22;7879;48.660;9.116;2022-12-13T04:57:21;-10.40;99.90
15556;DHT22;7879;48.660;9.116;2022-12-13T04:59:48;-10.50;99.90
15556;DHT22;7879;48.660;9.116;2022-12-13T05:02:15;-10.60;99.90
15556;DHT22;7879;48.660;9.116;2022-12-13T05:04:50;-10.60;99.90
15556;DHT22;7879;48.660;9.116;2022-12-13T05:07:20;-10.60;99.90
15556;DHT22;7879;48.660;9.116;2022-12-13T05:09:47;-10.60;99.90
15556;DHT22;7879;48.660;9.116;2022-12-13T05:12:14;-10.60;99.90
15556;DHT22;7879;48.660;9.116;2022-12-13T05:14:48;-10.70;99.90
15556;DHT22;7879;48.660;9.116;2022-12-13T05:17:15;-10.60;99.90
15556;DHT22;7879;48.660;9.116;2022-12-13T05:19:42;-10.70;99.90
15556;DHT22;7879;48.660;9.116;2022-12-13T05:22:09;-10.70;99.90
15556;DHT22;7879;48.660;9.116;2022-12-13T05:24:46;-10.70;99.90
15556;DHT22;7879;48.660;9.116;2022-12-13T05:27:13;-10.70;99.90
15556;DHT22;7879;48.660;9.116;2022-12-13T05:29:53;-10.70;99.90
15556;DHT22;7879;48.660;9.116;2022-12-13T05:32:32;-10.70;99.90
15556;DHT22;7879;48.660;9.116;2022-12-13T05:35:13;-10.70;99.90
15556;DHT22;7879;48.660;9.116;2022-12-13T05:37:50;-10.70;99.90
15556;DHT22;7879;48.660;9.116;2022-12-13T05:40:20;-10.60;99.90
15556;DHT22;7879;48.660;9.116;2022-12-13T05:42:47;-10.60;99.90
15556;DHT22;7879;48.660;9.116;2022-12-13T05:45:13;-10.60;99.90
15556;DHT22;7879;48.660;9.116;2022-12-13T05:47:41;-10.70;99.90
15556;DHT22;7879;48.660;9.116;2022-12-13T05:50:08;-10.70;99.90
15556;DHT22;7879;48.660;9.116;2022-12-13T05:52:36;-10.70;99.90
15556;DHT22;7879;48.660;9.116;2022-12-13T05:55:03;-10.70;99.90
15556;DHT22;7879;48.660;9.116;2022-12-13T05:57:30;-10.60;99.90
15556;DHT22;7879;48.660;9.116;2022-12-13T05:59:59;-10.60;99.90
15556;DHT22;7879;48.660;9.116;2022-12-13T06:02:26;-10.70;99.90
15556;DHT22;7879;48.660;9.116;2022-12-13T06:04:53;-10.70;99.90
15556;DHT22;7879;48.660;9.116;2022-12-13T06:07:20;-10.70;99.90
15556;DHT22;7879;48.660;9.116;2022-12-13T06:09:46;-10.60;99.90
15556;DHT22;7879;48.660;9.116;2022-12-13T06:12:13;-10.60;99.90
15556;DHT22;7879;48.660;9.116;2022-12-13T06:14:58;-10.60;99.90
15556;DHT22;7879;48.660;9.116;2022-12-13T06:17:44;-10.60;99.90
15556;DHT22;7879;48.660;9.116;2022-12-13T06:20:11;-10.70;99.90
15556;DHT22;7879;48.660;9.116;2022-12-13T06:22:50;-10.80;99.90
15556;DHT22;7879;48.660;9.116;2022-12-13T06:25:17;-10.80;99.90
15556;DHT22;7879;48.660;9.116;2022-12-13T06:27:58;-10.80;99.90
15556;DHT22;7879;48.660;9.116;2022-12-13T06:30:27;-10.90;99.90
15556;DHT22;7879;48.660;9.116;2022-12-13T06:32:54;-10.90;99.90
15556;DHT22;7879;48.660;9.116;2022-12-13T06:35:21;-10.90;99.90
15556;DHT22;7879;48.660;9.116;2022-12-13T06:37:56;-10.90;99.90
15556;DHT22;7879;48.660;9.116;2022-12-13T06:40:28;-10.90;99.90
15556;DHT22;7879;48.660;9.116;2022-12-13T06:42:56;-10.90;99.90
15556;DHT22;7879;48.660;9.116;2022-12-13T06:45:23;-10.90;99.90
15556;DHT22;7879;48.660;9.116;2022-12-13T06:47:49;-10.90;99.90
15556;DHT22;7879;48.660;9.116;2022-12-13T06:50:16;-10.90;99.90
15556;DHT22;7879;48.660;9.116;2022-12-13T06:52:45;-10.90;99.90
15556;DHT22;7879;48.660;9.116;2022-12-13T06:55:12;-11.00;99.90
15556;DHT22;7879;48.660;9.116;2022-12-13T06:57:39;-11.00;99.90
15556;DHT22;7879;48.660;9.116;2022-12-13T07:00:07;-10.90;99.90
15556;DHT22;7879;48.660;9.116;2022-12-13T07:02:34;-10.90;99.90
15556;DHT22;7879;48.660;9.116;2022-12-13T07:05:01;-10.90;99.90
15556;DHT22;7879;48.660;9.116;2022-12-13T07:07:28;-11.00;99.90
15556;DHT22;7879;48.660;9.116;2022-12-13T07:09:56;-11.00;99.90
15556;DHT22;7879;48.660;9.116;2022-12-13T07:12:23;-11.00;99.90
15556;DHT22;7879;48.660;9.116;2022-12-13T07:14:49;-11.10;99.90
15556;DHT22;7879;48.660;9.116;2022-12-13T07:17:16;-11.10;99.90
15556;DHT22;7879;48.660;9.116;2022-12-13T07:20:05;-11.10;99.90
15556;DHT22;7879;48.660;9.116;2022-12-13T07:22:35;-11.00;99.90
15556;DHT22;7879;48.660;9.116;2022-12-13T07:25:12;-11.10;99.90
15556;DHT22;7879;48.660;9.116;2022-12-13T07:28:03;-11.10;99.90
15556;DHT22;7879;48.660;9.116;2022-12-13T07:30:37;-11.10;99.90
15556;DHT22;7879;48.660;9.116;2022-12-13T07:33:08;-11.00;99.90
15556;DHT22;7879;48.660;9.116;2022-12-13T07:35:35;-10.90;99.90
15556;DHT22;7879;48.660;9.116;2022-12-13T07:38:04;-10.80;99.90
15556;DHT22;7879;48.660;9.116;2022-12-13T07:40:35;-10.80;99.90
15556;DHT22;7879;48.660;9.116;2022-12-13T07:43:02;-10.80;99.90
15556;DHT22;7879;48.660;9.116;2022-12-13T07:45:30;-10.80;99.90
15556;DHT22;7879;48.660;9.116;2022-12-13T07:47:57;-10.80;99.90
15556;DHT22;7879;48.660;9.116;2022-12-13T07:50:25;-10.80;99.90
15556;DHT22;7879;48.660;9.116;2022-12-13T07:52:52;-10.80;99.90
15556;DHT22;7879;48.660;9.116;2022-12-13T07:55:19;-10.70;99.90
15556;DHT22;7879;48.660;9.116;2022-12-13T07:58:14;-10.70;99.90
15556;DHT22;7879;48.660;9.116;2022-12-13T08:00:43;-10.60;99.90
15556;DHT22;7879;48.660;9.116;2022-12-13T08:03:13;-10.60;99.90
15556;DHT22;7879;48.660;9.116;2022-12-13T08:06:11;-10.60;99.90
15556;DHT22;7879;48.660;9.116;2022-12-13T08:08:38;-10.60;99.90
15556;DHT22;7879;48.660;9.116;2022-12-13T08:11:08;-10.50;99.90
15556;DHT22;7879;48.660;9.116;2022-12-13T08:13:36;-10.50;99.90
15556;DHT22;7879;48.660;9.116;2022-12-13T08:16:06;-10.50;99.90
15556;DHT22;7879;48.660;9.116;2022-12-13T08:18:57;-10.50;99.90
15556;DHT22;7879;48.660;9.116;2022-12-13T08:21:36;-10.50;99.90
15556;DHT22;7879;48.660;9.116;2022-12-13T08:24:23;-10.40;99.90
15556;DHT22;7879;48.660;9.116;2022-12-13T08:26:51;-10.30;99.90
15556;DHT22;7879;48.660;9.116;2022-12-13T08:29:18;-10.20;99.90
15556;DHT22;7879;48.660;9.116;2022-12-13T08:32:06;-10.10;99.90
15556;DHT22;7879;48.660;9.116;2022-12-13T08:34:34;-10.00;99.90
15556;DHT22;7879;48.660;9.116;2022-12-13T08:37:02;-9.90;99.90
15556;DHT22;7879;48.660;9.116;2022-12-13T08:39:31;-9.90;99.90
15556;DHT22;7879;48.660;9.116;2022-12-13T08:42:09;-9.80;99.90
15556;DHT22;7879;48.660;9.116;2022-12-13T08:48:05;-9.60;99.90
15556;DHT22;7879;48.660;9.116;2022-12-13T08:51:08;-9.40;99.90
15556;DHT22;7879;48.660;9.116;2022-12-13T08:53:52;-9.30;99.90
15556;DHT22;7879;48.660;9.116;2022-12-13T08:56:53;-9.20;99.90
15556;DHT22;7879;48.660;9.116;2022-12-13T08:59:33;-9.20;99.90
15556;DHT22;7879;48.660;9.116;2022-12-13T09:02:25;-9.20;99.90
15556;DHT22;7879;48.660;9.116;2022-12-13T09:05:13;-9.10;99.90
15556;DHT22;7879;48.660;9.116;2022-12-13T09:08:03;-9.00;99.90
15556;DHT22;7879;48.660;9.116;2022-12-13T09:11:11;-8.60;99.90
15556;DHT22;7879;48.660;9.116;2022-12-13T09:13:54;-8.20;99.90
15556;DHT22;7879;48.660;9.116;2022-12-13T09:16:27;-7.90;99.90
15556;DHT22;7879;48.660;9.116;2022-12-13T09:19:42;-7.70;99.90
15556;DHT22;7879;48.660;9.116;2022-12-13T09:26:44;-7.20;99.90
15556;DHT22;7879;48.660;9.116;2022-12-13T09:29:40;-7.10;99.90
15556;DHT22;7879;48.660;9.116;2022-12-13T09:32:18;-7.10;99.90
15556;DHT22;7879;48.660;9.116;2022-12-13T09:35:27;-6.90;99.90
15556;DHT22;7879;48.660;9.116;2022-12-13T09:38:25;-6.60;99.90
15556;DHT22;7879;48.660;9.116;2022-12-13T09:41:38;-6.40;99.90
15556;DHT22;7879;48.660;9.116;2022-12-13T09:50:57;-5.90;99.90
15556;DHT22;7879;48.660;9.116;2022-12-13T09:54:26;-5.80;99.90
15556;DHT22;7879;48.660;9.116;2022-12-13T09:57:33;-5.60;99.90
15556;DHT22;7879;48.660;9.116;2022-12-13T10:00:22;-5.40;99.90
15556;DHT22;7879;48.660;9.116;2022-12-13T10:03:48;-5.40;99.90
15556;DHT22;7879;48.660;9.116;2022-12-13T10:06:59;-5.40;99.90
15556;DHT22;7879;48.660;9.116;2022-12-13T10:16:05;-5.10;99.90
15556;DHT22;7879;48.660;9.116;2022-12-13T10:18:46;-5.00;99.90
15556;DHT22;7879;48.660;9.116;2022-12-13T10:21:32;-4.90;99.90
15556;DHT22;7879;48.660;9.116;2022-12-13T10:24:23;-4.90;99.90
15556;DHT22;7879;48.660;9.116;2022-12-13T10:27:14;-4.80;99.90
15556;DHT22;7879;48.660;9.116;2022-12-13T10:30:17;-4.70;99.90
15556;DHT22;7879;48.660;9.116;2022-12-13T10:32:57;-4.70;99.90
15556;DHT22;7879;48.660;9.116;2022-12-13T10:35:31;-4.50;99.90
15556;DHT22;7879;48.660;9.116;2022-12-13T10:38:48;-4.50;99.90
15556;DHT22;7879;48.660;9.116;2022-12-13T10:40:58;-4.40;99.90
15556;DHT22;7879;48.660;9.116;2022-12-13T10:43:31;-4.30;99.90
15556;DHT22;7879;48.660;9.116;2022-12-13T10:46:03;-4.20;99.90
15556;DHT22;7879;48.660;9.116;2022-12-13T10:48:37;-4.10;99.90
15556;DHT22;7879;48.660;9.116;2022-12-13T10:51:08;-4.00;99.90
15556;DHT22;7879;48.660;9.116;2022-12-13T10:56:16;-3.90;99.90
15556;DHT22;7879;48.660;9.116;2022-12-13T10:59:10;-3.80;99.90
15556;DHT22;7879;48.660;9.116;2022-12-13T11:01:43;-3.70;99.90
15556;DHT22;7879;48.660;9.116;2022-12-13T11:04:33;-3.70;99.90
15556;DHT22;7879;48.660;9.116;2022-12-13T11:07:28;-3.70;99.90
15556;DHT22;7879;48.660;9.116;2022-12-13T11:10:19;-3.70;99.90
15556;DHT22;7879;48.660;9.116;2022-12-13T11:13:01;-3.60;99.90
15556;DHT22;7879;48.660;9.116;2022-12-13T11:15:36;-3.50;99.90
15556;DHT22;7879;48.660;9.116;2022-12-13T11:18:27;-3.40;99.90
15556;DHT22;7879;48.660;9.116;2022-12-13T11:21:29;-3.40;99.90
15556;DHT22;7879;48.660;9.116;2022-12-13T11:24:30;-3.40;99.90
15556;DHT22;7879;48.660;9.116;2022-12-13T11:33:06;-3.30;99.90
15556;DHT22;7879;48.660;9.116;2022-12-13T11:42:48;-3.40;99.90
15556;DHT22;7879;48.660;9.116;2022-12-13T11:46:01;-3.20;99.90
15556;DHT22;7879;48.660;9.116;2022-12-13T11:49:37;-3.30;99.90
15556;DHT22;7879;48.660;9.116;2022-12-13T11:52:43;-3.20;99.90
15556;DHT22;7879;48.660;9.116;2022-12-13T11:55:39;-3.20;99.90
15556;DHT22;7879;48.660;9.116;2022-12-13T11:58:24;-3.20;99.90
15556;DHT22;7879;48.660;9.116;2022-12-13T12:01:51;-3.20;99.90
15556;DHT22;7879;48.660;9.116;2022-12-13T12:04:53;-3.10;99.90
15556;DHT22;7879;48.660;9.116;2022-12-13T12:08:27;-3.00;99.90
15556;DHT22;7879;48.660;9.116;2022-12-13T12:12:03;-3.00;99.90
15556;DHT22;7879;48.660;9.116;2022-12-13T12:18:28;-2.90;99.90
15556;DHT22;7879;48.660;9.116;2022-12-13T12:28:03;-2.80;99.90
15556;DHT22;7879;48.660;9.116;2022-12-13T12:37:58;-2.70;99.90
15556;DHT22;7879;48.660;9.116;2022-12-13T12:43:42;-2.60;99.90
15556;DHT22;7879;48.660;9.116;2022-12-13T12:52:56;-2.40;99.90
15556;DHT22;7879;48.660;9.116;2022-12-13T13:11:36;-2.50;99.90
15556;DHT22;7879;48.660;9.116;2022-12-13T13:14:39;-2.40;99.90
15556;DHT22;7879;48.660;9.116;2022-12-13T13:20:29;-2.50;99.90
15556;DHT22;7879;48.660;9.116;2022-12-13T13:23:26;-2.50;99.90
15556;DHT22;7879;48.660;9.116;2022-12-13T13:26:33;-2.50;99.90
15556;DHT22;7879;48.660;9.116;2022-12-13T13:38:27;-2.50;99.90
15556;DHT22;7879;48.660;9.116;2022-12-13T13:50:17;-2.40;99.90
15556;DHT22;7879;48.660;9.116;2022-12-13T14:02:57;-2.40;99.90
15556;DHT22;7879;48.660;9.116;2022-12-13T14:19:13;-2.30;99.90
15556;DHT22;7879;48.660;9.116;2022-12-13T14:29:09;-2.30;99.90
15556;DHT22;7879;48.660;9.116;2022-12-13T14:36:21;-2.30;99.90
15556;DHT22;7879;48.660;9.116;2022-12-13T14:38:59;-2.30;99.90
15556;DHT22;7879;48.660;9.116;2022-12-13T14:41:28;-2.30;99.90
15556;DHT22;7879;48.660;9.116;2022-12-13T14:44:11;-2.40;99.90
15556;DHT22;7879;48.660;9.116;2022-12-13T14:46:59;-2.40;99.90
15556;DHT22;7879;48.660;9.116;2022-12-13T14:49:35;-2.40;99.90
15556;DHT22;7879;48.660;9.116;2022-12-13T14:52:25;-2.40;99.90
15556;DHT22;7879;48.660;9.116;2022-12-13T14:55:00;-2.40;99.90
15556;DHT22;7879;48.660;9.116;2022-12-13T14:57:31;-2.40;99.90
15556;DHT22;7879;48.660;9.116;2022-12-13T15:00:00;-2.50;99.90
15556;DHT22;7879;48.660;9.116;2022-12-13T15:02:32;-2.40;99.90
15556;DHT22;7879;48.660;9.116;2022-12-13T15:05:02;-2.40;99.90
15556;DHT22;7879;48.660;9.116;2022-12-13T15:07:40;-2.50;99.90
15556;DHT22;7879;48.660;9.116;2022-12-13T15:12:51;-2.40;99.90
15556;DHT22;7879;48.660;9.116;2022-12-13T15:15:30;-2.50;99.90
15556;DHT22;7879;48.660;9.116;2022-12-13T15:18:24;-2.50;99.90
15556;DHT22;7879;48.660;9.116;2022-12-13T15:20:53;-2.60;99.90
15556;DHT22;7879;48.660;9.116;2022-12-13T15:23:33;-2.50;99.90
15556;DHT22;7879;48.660;9.116;2022-12-13T15:26:17;-2.50;99.90
15556;DHT22;7879;48.660;9.116;2022-12-13T15:29:00;-2.50;99.90
15556;DHT22;7879;48.660;9.116;2022-12-13T15:31:36;-2.60;99.90
15556;DHT22;7879;48.660;9.116;2022-12-13T15:34:34;-2.60;99.90
15556;DHT22;7879;48.660;9.116;2022-12-13T15:37:30;-2.60;99.90
15556;DHT22;7879;48.660;9.116;2022-12-13T15:40:00;-2.60;99.90
15556;DHT22;7879;48.660;9.116;2022-12-13T15:42:33;-2.60;99.90
15556;DHT22;7879;48.660;9.116;2022-12-13T15:45:04;-2.60;99.90
15556;DHT22;7879;48.660;9.116;2022-12-13T15:47:31;-2.60;99.90
15556;DHT22;7879;48.660;9.116;2022-12-13T15:50:01;-2.60;99.90
15556;DHT22;7879;48.660;9.116;2022-12-13T15:52:39;-2.60;99.90
15556;DHT22;7879;48.660;9.116;2022-12-13T15:57:53;-2.60;99.90
15556;DHT22;7879;48.660;9.116;2022-12-13T16:00:23;-2.70;99.90
15556;DHT22;7879;48.660;9.116;2022-12-13T16:03:05;-2.60;99.90
15556;DHT22;7879;48.660;9.116;2022-12-13T16:05:40;-2.60;99.90
15556;DHT22;7879;48.660;9.116;2022-12-13T16:08:32;-2.60;99.90
15556;DHT22;7879;48.660;9.116;2022-12-13T16:11:01;-2.50;99.90
15556;DHT22;7879;48.660;9.116;2022-12-13T16:13:34;-2.50;99.90
15556;DHT22;7879;48.660;9.116;2022-12-13T16:18:50;-2.60;99.90
15556;DHT22;7879;48.660;9.116;2022-12-13T16:21:17;-2.60;99.90
15556;DHT22;7879;48.660;9.116;2022-12-13T16:23:44;-2.70;99.90
15556;DHT22;7879;48.660;9.116;2022-12-13T16:26:19;-2.60;99.90
15556;DHT22;7879;48.660;9.116;2022-12-13T16:28:46;-2.70;99.90
15556;DHT22;7879;48.660;9.116;2022-12-13T16:31:18;-2.70;99.90
15556;DHT22;7879;48.660;9.116;2022-12-13T16:33:47;-2.70;99.90
15556;DHT22;7879;48.660;9.116;2022-12-13T16:36:14;-2.80;99.90
15556;DHT22;7879;48.660;9.116;2022-12-13T16:38:41;-2.70;99.90
15556;DHT22;7879;48.660;9.116;2022-12-13T16:41:08;-2.70;99.90
15556;DHT22;7879;48.660;9.116;2022-12-13T16:43:48;-2.70;99.90
15556;DHT22;7879;48.660;9.116;2022-12-13T16:46:16;-2.70;99.90
15556;DHT22;7879;48.660;9.116;2022-12-13T16:49:29;-2.80;99.90
15556;DHT22;7879;48.660;9.116;2022-12-13T16:51:55;-2.70;99.90
15556;DHT22;7879;48.660;9.116;2022-12-13T16:54:23;-2.80;99.90
15556;DHT22;7879;48.660;9.116;2022-12-13T16:56:52;-2.80;99.90
15556;DHT22;7879;48.660;9.116;2022-12-13T16:59:22;-2.80;99.90
15556;DHT22;7879;48.660;9.116;2022-12-13T17:01:50;-2.80;99.90
15556;DHT22;7879;48.660;9.116;2022-12-13T17:04:20;-3.00;99.90
15556;DHT22;7879;48.660;9.116;2022-12-13T17:06:49;-2.90;99.90
15556;DHT22;7879;48.660;9.116;2022-12-13T17:09:17;-2.90;99.90
15556;DHT22;7879;48.660;9.116;2022-12-13T17:11:44;-2.90;99.90
15556;DHT22;7879;48.660;9.116;2022-12-13T17:14:11;-2.90;99.90
15556;DHT22;7879;48.660;9.116;2022-12-13T17:16:37;-2.90;99.90
15556;DHT22;7879;48.660;9.116;2022-12-13T17:19:04;-2.90;99.90
15556;DHT22;7879;48.660;9.116;2022-12-13T17:21:31;-2.90;99.90
15556;DHT22;7879;48.660;9.116;2022-12-13T17:24:00;-2.90;99.90
15556;DHT22;7879;48.660;9.116;2022-12-13T17:26:28;-2.90;99.90
15556;DHT22;7879;48.660;9.116;2022-12-13T17:28:55;-2.90;99.90
15556;DHT22;7879;48.660;9.116;2022-12-13T17:31:22;-3.00;99.90
15556;DHT22;7879;48.660;9.116;2022-12-13T17:33:48;-2.90;99.90
15556;DHT22;7879;48.660;9.116;2022-12-13T17:36:15;-3.00;99.90
15556;DHT22;7879;48.660;9.116;2022-12-13T17:38:44;-3.00;99.90
15556;DHT22;7879;48.660;9.116;2022-12-13T17:41:12;-3.10;99.90
15556;DHT22;7879;48.660;9.116;2022-12-13T17:43:39;-3.10;99.90
15556;DHT22;7879;48.660;9.116;2022-12-13T17:46:10;-3.10;99.90
15556;DHT22;7879;48.660;9.116;2022-12-13T17:48:37;-3.10;99.90
15556;DHT22;7879;48.660;9.116;2022-12-13T17:51:10;-3.10;99.90
15556;DHT22;7879;48.660;9.116;2022-12-13T17:53:39;-3.10;99.90
15556;DHT22;7879;48.660;9.116;2022-12-13T17:56:08;-3.20;99.90
15556;DHT22;7879;48.660;9.116;2022-12-13T17:58:36;-3.20;99.90
15556;DHT22;7879;48.660;9.116;2022-12-13T18:01:13;-3.20;99.90
15556;DHT22;7879;48.660;9.116;2022-12-13T18:03:41;-3.20;99.90
15556;DHT22;7879;48.660;9.116;2022-12-13T18:06:08;-3.20;99.90
15556;DHT22;7879;48.660;9.116;2022-12-13T18:08:36;-3.20;99.90
15556;DHT22;7879;48.660;9.116;2022-12-13T18:11:05;-3.20;99.90
15556;DHT22;7879;48.660;9.116;2022-12-13T18:13:52;-3.20;99.90
15556;DHT22;7879;48.660;9.116;2022-12-13T18:16:22;-3.20;99.90
15556;DHT22;7879;48.660;9.116;2022-12-13T18:18:49;-3.20;99.90
15556;DHT22;7879;48.660;9.116;2022-12-13T18:21:21;-3.30;99.90
15556;DHT22;7879;48.660;9.116;2022-12-13T18:23:48;-3.30;99.90
15556;DHT22;7879;48.660;9.116;2022-12-13T18:26:22;-3.20;99.90
15556;DHT22;7879;48.660;9.116;2022-12-13T18:28:49;-3.30;99.90
15556;DHT22;7879;48.660;9.116;2022-12-13T18:31:19;-3.30;99.90
15556;DHT22;7879;48.660;9.116;2022-12-13T18:33:46;-3.30;99.90
15556;DHT22;7879;48.660;9.116;2022-12-13T18:36:14;-3.30;99.90
15556;DHT22;7879;48.660;9.116;2022-12-13T18:38:42;-3.40;99.90
15556;DHT22;7879;48.660;9.116;2022-12-13T18:41:11;-3.30;99.90
15556;DHT22;7879;48.660;9.116;2022-12-13T18:43:41;-3.30;99.90
15556;DHT22;7879;48.660;9.116;2022-12-13T18:46:08;-3.40;99.90
15556;DHT22;7879;48.660;9.116;2022-12-13T18:48:35;-3.40;99.90
15556;DHT22;7879;48.660;9.116;2022-12-13T18:51:05;-3.40;99.90
15556;DHT22;7879;48.660;9.116;2022-12-13T18:53:34;-3.40;99.90
15556;DHT22;7879;48.660;9.116;2022-12-13T18:56:11;-3.40;99.90
15556;DHT22;7879;48.660;9.116;2022-12-13T18:58:45;-3.40;99.90
15556;DHT22;7879;48.660;9.116;2022-12-13T19:01:12;-3.40;99.90
15556;DHT22;7879;48.660;9.116;2022-12-13T19:03:42;-3.50;99.90
15556;DHT22;7879;48.660;9.116;2022-12-13T19:06:15;-3.40;99.90
15556;DHT22;7879;48.660;9.116;2022-12-13T19:08:42;-3.50;99.90
15556;DHT22;7879;48.660;9.116;2022-12-13T19:11:12;-3.40;99.90
15556;DHT22;7879;48.660;9.116;2022-12-13T19:13:39;-3.40;99.90
15556;DHT22;7879;48.660;9.116;2022-12-13T19:16:09;-3.50;99.90
15556;DHT22;7879;48.660;9.116;2022-12-13T19:18:36;-3.50;99.90
15556;DHT22;7879;48.660;9.116;2022-12-13T19:21:06;-3.50;99.90
15556;DHT22;7879;48.660;9.116;2022-12-13T19:23:33;-3.50;99.90
15556;DHT22;7879;48.660;9.116;2022-12-13T19:26:12;-3.60;99.90
15556;DHT22;7879;48.660;9.116;2022-12-13T19:28:40;-3.50;99.90
15556;DHT22;7879;48.660;9.116;2022-12-13T19:31:10;-3.60;99.90